sensor_id;sensor_type;location;lat;lon;timestamp;temperature;humidity
30288;DHT22;17103;48.316;11.558;2022-12-07T00:00:54;10.30;44.80
30288;DHT22;17103;48.316;11.558;2022-12-07T00:03:19;10.30;45.20
30288;DHT22;17103;48.316;11.558;2022-12-07T00:05:45;10.30;45.20
30288;DHT22;17103;48.316;11.558;2022-12-07T00:08:11;10.20;44.90
30288;DHT22;17103;48.316;11.558;2022-12-07T00:10:36;10.20;45.00
30288;DHT22;17103;48.316;11.558;2022-12-07T00:13:02;10.20;44.90
30288;DHT22;17103;48.316;11.558;2022-12-07T00:15:28;10.10;45.00
30288;DHT22;17103;48.316;11.558;2022-12-07T00:17:54;10.10;45.00
30288;DHT22;17103;48.316;11.558;2022-12-07T00:20:20;10.10;45.00
30288;DHT22;17103;48.316;11.558;2022-12-07T00:22:46;10.00;44.80
30288;DHT22;17103;48.316;11.558;2022-12-07T00:25:12;10.00;44.90
30288;DHT22;17103;48.316;11.558;2022-12-07T00:27:38;10.00;44.90
30288;DHT22;17103;48.316;11.558;2022-12-07T00:30:04;9.90;46.20
30288;DHT22;17103;48.316;11.558;2022-12-07T00:32:30;9.90;46.30
30288;DHT22;17103;48.316;11.558;2022-12-07T00:34:55;9.90;46.10
30288;DHT22;17103;48.316;11.558;2022-12-07T00:37:21;10.00;45.50
30288;DHT22;17103;48.316;11.558;2022-12-07T00:39:47;10.00;45.00
30288;DHT22;17103;48.316;11.558;2022-12-07T00:42:13;10.00;45.50
30288;DHT22;17103;48.316;11.558;2022-12-07T00:44:40;10.00;45.40
30288;DHT22;17103;48.316;11.558;2022-12-07T00:47:06;10.00;45.50
30288;DHT22;17103;48.316;11.558;2022-12-07T00:49:51;10.10;45.20
30288;DHT22;17103;48.316;11.558;2022-12-07T00:52:17;10.00;44.70
30288;DHT22;17103;48.316;11.558;2022-12-07T00:54:46;10.00;44.80
30288;DHT22;17103;48.316;11.558;2022-12-07T00:57:13;10.00;45.00
30288;DHT22;17103;48.316;11.558;2022-12-07T00:59:38;10.30;45.30
30288;DHT22;17103;48.316;11.558;2022-12-07T01:02:04;10.00;44.90
30288;DHT22;17103;48.316;11.558;2022-12-07T01:04:29;10.00;45.00
30288;DHT22;17103;48.316;11.558;2022-12-07T01:06:55;10.00;45.10
30288;DHT22;17103;48.316;11.558;2022-12-07T01:09:21;10.00;45.10
30288;DHT22;17103;48.316;11.558;2022-12-07T01:11:47;10.00;45.30
30288;DHT22;17103;48.316;11.558;2022-12-07T01:14:13;10.00;45.10
30288;DHT22;17103;48.316;11.558;2022-12-07T01:16:39;10.10;45.00
30288;DHT22;17103;48.316;11.558;2022-12-07T01:19:08;10.10;45.10
30288;DHT22;17103;48.316;11.558;2022-12-07T01:21:35;10.10;45.10
30288;DHT22;17103;48.316;11.558;2022-12-07T01:24:04;10.10;45.10
30288;DHT22;17103;48.316;11.558;2022-12-07T01:26:31;10.10;45.20
30288;DHT22;17103;48.316;11.558;2022-12-07T01:28:57;10.10;45.10
30288;DHT22;17103;48.316;11.558;2022-12-07T01:31:25;10.10;45.00
30288;DHT22;17103;48.316;11.558;2022-12-07T01:33:54;10.20;45.00
30288;DHT22;17103;48.316;11.558;2022-12-07T01:36:32;10.20;45.00
30288;DHT22;17103;48.316;11.558;2022-12-07T01:39:00;10.20;45.00
30288;DHT22;17103;48.316;11.558;2022-12-07T01:41:29;10.20;45.10
30288;DHT22;17103;48.316;11.558;2022-12-07T01:44:27;10.30;45.30
30288;DHT22;17103;48.316;11.558;2022-12-07T01:47:03;10.30;44.80
30288;DHT22;17103;48.316;11.558;2022-12-07T01:49:42;10.40;45.20
30288;DHT22;17103;48.316;11.558;2022-12-07T01:54:44;10.50;44.90
30288;DHT22;17103;48.316;11.558;2022-12-07T01:57:15;10.50;44.70
30288;DHT22;17103;48.316;11.558;2022-12-07T01:59:43;10.60;44.70
30288;DHT22;17103;48.316;11.558;2022-12-07T02:02:51;10.60;44.80
30288;DHT22;17103;48.316;11.558;2022-12-07T02:05:18;10.60;44.70
30288;DHT22;17103;48.316;11.558;2022-12-07T02:07:47;10.70;45.10
30288;DHT22;17103;48.316;11.558;2022-12-07T02:10:22;10.70;44.90
30288;DHT22;17103;48.316;11.558;2022-12-07T02:12:56;10.80;44.80
30288;DHT22;17103;48.316;11.558;2022-12-07T02:15:36;10.80;44.70
30288;DHT22;17103;48.316;11.558;2022-12-07T02:19:06;10.80;44.80
30288;DHT22;17103;48.316;11.558;2022-12-07T02:32:31;11.00;43.70
30288;DHT22;17103;48.316;11.558;2022-12-07T02:35:18;11.00;43.70
30288;DHT22;17103;48.316;11.558;2022-12-07T02:40:39;10.90;43.70
30288;DHT22;17103;48.316;11.558;2022-12-07T02:43:17;10.90;43.60
30288;DHT22;17103;48.316;11.558;2022-12-07T02:45:45;10.80;43.40
30288;DHT22;17103;48.316;11.558;2022-12-07T02:48:14;10.80;43.90
30288;DHT22;17103;48.316;11.558;2022-12-07T02:50:59;10.80;44.00
30288;DHT22;17103;48.316;11.558;2022-12-07T02:53:40;11.20;44.20
30288;DHT22;17103;48.316;11.558;2022-12-07T02:56:22;10.90;43.70
30288;DHT22;17103;48.316;11.558;2022-12-07T03:04:52;11.00;43.90
30288;DHT22;17103;48.316;11.558;2022-12-07T03:13:59;11.10;43.90
30288;DHT22;17103;48.316;11.558;2022-12-07T03:16:12;11.20;43.90
30288;DHT22;17103;48.316;11.558;2022-12-07T03:18:46;11.30;43.90
30288;DHT22;17103;48.316;11.558;2022-12-07T03:21:20;12.10;44.50
30288;DHT22;17103;48.316;11.558;2022-12-07T03:23:51;11.40;43.70
30288;DHT22;17103;48.316;11.558;2022-12-07T03:26:19;11.50;43.80
30288;DHT22;17103;48.316;11.558;2022-12-07T03:28:52;11.50;43.40
30288;DHT22;17103;48.316;11.558;2022-12-07T03:31:26;11.60;43.60
30288;DHT22;17103;48.316;11.558;2022-12-07T03:37:03;11.60;43.20
30288;DHT22;17103;48.316;11.558;2022-12-07T03:39:41;11.70;43.20
30288;DHT22;17103;48.316;11.558;2022-12-07T03:42:11;11.70;42.80
30288;DHT22;17103;48.316;11.558;2022-12-07T03:44:38;11.70;43.00
30288;DHT22;17103;48.316;11.558;2022-12-07T03:49:55;11.60;42.50
30288;DHT22;17103;48.316;11.558;2022-12-07T03:52:35;11.60;42.70
30288;DHT22;17103;48.316;11.558;2022-12-07T03:57:43;11.50;42.60
30288;DHT22;17103;48.316;11.558;2022-12-07T04:00:11;11.40;42.50
30288;DHT22;17103;48.316;11.558;2022-12-07T04:02:37;11.40;42.60
30288;DHT22;17103;48.316;11.558;2022-12-07T04:05:04;11.30;42.60
30288;DHT22;17103;48.316;11.558;2022-12-07T04:07:30;11.20;42.50
30288;DHT22;17103;48.316;11.558;2022-12-07T04:09:56;11.20;42.70
30288;DHT22;17103;48.316;11.558;2022-12-07T04:12:23;11.10;42.80
30288;DHT22;17103;48.316;11.558;2022-12-07T04:14:49;11.00;42.90
30288;DHT22;17103;48.316;11.558;2022-12-07T04:17:15;11.00;43.10
30288;DHT22;17103;48.316;11.558;2022-12-07T04:19:40;11.10;43.40
30288;DHT22;17103;48.316;11.558;2022-12-07T04:22:06;10.90;43.20
30288;DHT22;17103;48.316;11.558;2022-12-07T04:24:32;10.90;43.20
30288;DHT22;17103;48.316;11.558;2022-12-07T04:26:58;10.80;43.40
30288;DHT22;17103;48.316;11.558;2022-12-07T04:29:24;10.80;43.40
30288;DHT22;17103;48.316;11.558;2022-12-07T04:31:50;10.70;43.10
30288;DHT22;17103;48.316;11.558;2022-12-07T04:34:17;10.70;43.10
30288;DHT22;17103;48.316;11.558;2022-12-07T04:36:43;10.60;43.20
30288;DHT22;17103;48.316;11.558;2022-12-07T04:39:27;10.50;43.50
30288;DHT22;17103;48.316;11.558;2022-12-07T04:41:53;10.50;43.50
30288;DHT22;17103;48.316;11.558;2022-12-07T04:44:20;10.40;43.40
30288;DHT22;17103;48.316;11.558;2022-12-07T04:46:47;10.30;43.40
30288;DHT22;17103;48.316;11.558;2022-12-07T04:49:14;10.30;43.60
30288;DHT22;17103;48.316;11.558;2022-12-07T04:51:40;10.20;43.70
30288;DHT22;17103;48.316;11.558;2022-12-07T04:54:06;10.30;44.10
30288;DHT22;17103;48.316;11.558;2022-12-07T04:56:32;10.10;44.00
30288;DHT22;17103;48.316;11.558;2022-12-07T04:58:58;10.00;44.00
30288;DHT22;17103;48.316;11.558;2022-12-07T05:01:24;10.00;44.20
30288;DHT22;17103;48.316;11.558;2022-12-07T05:03:50;10.00;44.20
30288;DHT22;17103;48.316;11.558;2022-12-07T05:06:16;9.90;45.10
30288;DHT22;17103;48.316;11.558;2022-12-07T05:08:42;9.90;45.20
30288;DHT22;17103;48.316;11.558;2022-12-07T05:11:09;9.90;45.30
30288;DHT22;17103;48.316;11.558;2022-12-07T05:13:55;9.90;45.40
30288;DHT22;17103;48.316;11.558;2022-12-07T05:16:21;10.30;44.90
30288;DHT22;17103;48.316;11.558;2022-12-07T05:18:46;9.90;46.00
30288;DHT22;17103;48.316;11.558;2022-12-07T05:21:12;9.90;45.40
30288;DHT22;17103;48.316;11.558;2022-12-07T05:23:38;10.00;44.60
30288;DHT22;17103;48.316;11.558;2022-12-07T05:26:03;9.90;45.20
30288;DHT22;17103;48.316;11.558;2022-12-07T05:28:29;9.90;45.20
30288;DHT22;17103;48.316;11.558;2022-12-07T05:30:55;9.80;45.00
30288;DHT22;17103;48.316;11.558;2022-12-07T05:33:20;9.80;45.00
30288;DHT22;17103;48.316;11.558;2022-12-07T05:35:46;9.70;45.10
30288;DHT22;17103;48.316;11.558;2022-12-07T05:38:11;9.60;45.50
30288;DHT22;17103;48.316;11.558;2022-12-07T05:40:37;9.60;45.70
30288;DHT22;17103;48.316;11.558;2022-12-07T05:43:03;9.90;45.80
30288;DHT22;17103;48.316;11.558;2022-12-07T05:45:29;9.60;45.80
30288;DHT22;17103;48.316;11.558;2022-12-07T05:47:54;9.60;46.00
30288;DHT22;17103;48.316;11.558;2022-12-07T05:50:20;10.20;45.50
30288;DHT22;17103;48.316;11.558;2022-12-07T05:52:46;9.60;45.90
30288;DHT22;17103;48.316;11.558;2022-12-07T05:55:12;9.70;45.90
30288;DHT22;17103;48.316;11.558;2022-12-07T05:57:38;9.70;45.60
30288;DHT22;17103;48.316;11.558;2022-12-07T06:00:05;9.70;45.60
30288;DHT22;17103;48.316;11.558;2022-12-07T06:02:31;9.70;45.70
30288;DHT22;17103;48.316;11.558;2022-12-07T06:04:57;9.70;45.60
30288;DHT22;17103;48.316;11.558;2022-12-07T06:07:23;9.70;45.60
30288;DHT22;17103;48.316;11.558;2022-12-07T06:09:49;9.70;45.60
30288;DHT22;17103;48.316;11.558;2022-12-07T06:12:14;9.70;45.60
30288;DHT22;17103;48.316;11.558;2022-12-07T06:14:58;9.70;45.60
30288;DHT22;17103;48.316;11.558;2022-12-07T06:17:24;9.60;45.30
30288;DHT22;17103;48.316;11.558;2022-12-07T06:19:50;9.60;45.20
30288;DHT22;17103;48.316;11.558;2022-12-07T06:22:16;9.50;45.10
30288;DHT22;17103;48.316;11.558;2022-12-07T06:24:41;9.50;44.80
30288;DHT22;17103;48.316;11.558;2022-12-07T06:27:07;9.30;44.50
30288;DHT22;17103;48.316;11.558;2022-12-07T06:29:34;9.20;44.70
30288;DHT22;17103;48.316;11.558;2022-12-07T06:32:00;9.10;44.80
30288;DHT22;17103;48.316;11.558;2022-12-07T06:34:27;8.90;44.80
30288;DHT22;17103;48.316;11.558;2022-12-07T06:36:53;8.80;45.00
30288;DHT22;17103;48.316;11.558;2022-12-07T06:39:24;8.60;45.20
30288;DHT22;17103;48.316;11.558;2022-12-07T06:41:50;8.50;45.50
30288;DHT22;17103;48.316;11.558;2022-12-07T06:44:17;8.30;45.50
30288;DHT22;17103;48.316;11.558;2022-12-07T06:46:43;8.20;45.70
30288;DHT22;17103;48.316;11.558;2022-12-07T06:49:09;8.10;45.90
30288;DHT22;17103;48.316;11.558;2022-12-07T06:51:35;8.00;46.10
30288;DHT22;17103;48.316;11.558;2022-12-07T06:54:03;7.80;46.30
30288;DHT22;17103;48.316;11.558;2022-12-07T06:56:29;7.80;46.40
30288;DHT22;17103;48.316;11.558;2022-12-07T06:58:55;7.70;46.60
30288;DHT22;17103;48.316;11.558;2022-12-07T07:01:20;7.60;46.80
30288;DHT22;17103;48.316;11.558;2022-12-07T07:03:46;7.50;47.10
30288;DHT22;17103;48.316;11.558;2022-12-07T07:06:12;7.50;47.30
30288;DHT22;17103;48.316;11.558;2022-12-07T07:08:39;7.40;47.30
30288;DHT22;17103;48.316;11.558;2022-12-07T07:11:06;7.30;47.60
30288;DHT22;17103;48.316;11.558;2022-12-07T07:13:32;7.20;47.40
30288;DHT22;17103;48.316;11.558;2022-12-07T07:15:58;7.20;47.90
30288;DHT22;17103;48.316;11.558;2022-12-07T07:18:24;7.20;47.90
30288;DHT22;17103;48.316;11.558;2022-12-07T07:20:53;7.10;47.90
30288;DHT22;17103;48.316;11.558;2022-12-07T07:23:20;7.00;48.20
30288;DHT22;17103;48.316;11.558;2022-12-07T07:25:46;7.00;48.20
30288;DHT22;17103;48.316;11.558;2022-12-07T07:28:12;6.90;48.20
30288;DHT22;17103;48.316;11.558;2022-12-07T07:30:38;6.90;48.70
30288;DHT22;17103;48.316;11.558;2022-12-07T07:33:05;6.90;48.30
30288;DHT22;17103;48.316;11.558;2022-12-07T07:35:33;6.80;48.70
30288;DHT22;17103;48.316;11.558;2022-12-07T07:37:59;6.80;48.90
30288;DHT22;17103;48.316;11.558;2022-12-07T07:40:25;6.70;48.70
30288;DHT22;17103;48.316;11.558;2022-12-07T07:42:52;6.70;48.80
30288;DHT22;17103;48.316;11.558;2022-12-07T07:45:20;6.70;48.80
30288;DHT22;17103;48.316;11.558;2022-12-07T07:47:45;6.60;48.60
30288;DHT22;17103;48.316;11.558;2022-12-07T07:50:11;6.60;49.00
30288;DHT22;17103;48.316;11.558;2022-12-07T07:52:37;6.60;48.90
30288;DHT22;17103;48.316;11.558;2022-12-07T07:55:03;6.50;49.10
30288;DHT22;17103;48.316;11.558;2022-12-07T07:57:29;6.50;49.10
30288;DHT22;17103;48.316;11.558;2022-12-07T07:59:55;6.50;49.50
30288;DHT22;17103;48.316;11.558;2022-12-07T08:02:21;7.10;50.10
30288;DHT22;17103;48.316;11.558;2022-12-07T08:04:48;6.50;49.60
30288;DHT22;17103;48.316;11.558;2022-12-07T08:07:14;6.50;49.90
30288;DHT22;17103;48.316;11.558;2022-12-07T08:09:40;6.40;50.00
30288;DHT22;17103;48.316;11.558;2022-12-07T08:12:06;6.40;49.90
30288;DHT22;17103;48.316;11.558;2022-12-07T08:14:32;6.40;50.10
30288;DHT22;17103;48.316;11.558;2022-12-07T08:16:59;6.30;50.00
30288;DHT22;17103;48.316;11.558;2022-12-07T08:19:25;6.40;50.50
30288;DHT22;17103;48.316;11.558;2022-12-07T08:21:56;6.30;50.40
30288;DHT22;17103;48.316;11.558;2022-12-07T08:24:22;6.30;50.40
30288;DHT22;17103;48.316;11.558;2022-12-07T08:26:51;6.40;51.00
30288;DHT22;17103;48.316;11.558;2022-12-07T08:29:17;5.60;50.70
30288;DHT22;17103;48.316;11.558;2022-12-07T08:31:43;7.00;51.50
30288;DHT22;17103;48.316;11.558;2022-12-07T08:34:11;6.30;51.00
30288;DHT22;17103;48.316;11.558;2022-12-07T08:36:37;6.30;51.00
30288;DHT22;17103;48.316;11.558;2022-12-07T08:39:03;6.30;51.30
30288;DHT22;17103;48.316;11.558;2022-12-07T08:41:28;6.30;51.50
30288;DHT22;17103;48.316;11.558;2022-12-07T08:43:54;7.20;52.00
30288;DHT22;17103;48.316;11.558;2022-12-07T08:46:36;6.30;51.50
30288;DHT22;17103;48.316;11.558;2022-12-07T08:49:14;6.30;51.80
30288;DHT22;17103;48.316;11.558;2022-12-07T08:51:41;6.30;51.70
30288;DHT22;17103;48.316;11.558;2022-12-07T08:54:11;6.30;51.50
30288;DHT22;17103;48.316;11.558;2022-12-07T08:56:37;6.30;51.80
30288;DHT22;17103;48.316;11.558;2022-12-07T08:59:04;6.30;51.70
30288;DHT22;17103;48.316;11.558;2022-12-07T09:01:30;6.30;52.00
30288;DHT22;17103;48.316;11.558;2022-12-07T09:03:56;6.30;51.70
30288;DHT22;17103;48.316;11.558;2022-12-07T09:06:22;6.30;51.80
30288;DHT22;17103;48.316;11.558;2022-12-07T09:08:51;7.10;52.10
30288;DHT22;17103;48.316;11.558;2022-12-07T09:11:18;6.40;51.70
30288;DHT22;17103;48.316;11.558;2022-12-07T09:13:43;6.40;51.60
30288;DHT22;17103;48.316;11.558;2022-12-07T09:16:09;6.50;51.60
30288;DHT22;17103;48.316;11.558;2022-12-07T09:18:35;6.50;51.60
30288;DHT22;17103;48.316;11.558;2022-12-07T09:21:00;6.50;51.30
30288;DHT22;17103;48.316;11.558;2022-12-07T09:23:26;7.60;52.10
30288;DHT22;17103;48.316;11.558;2022-12-07T09:25:51;6.50;51.30
30288;DHT22;17103;48.316;11.558;2022-12-07T09:28:17;6.60;51.20
30288;DHT22;17103;48.316;11.558;2022-12-07T09:30:47;6.60;51.20
30288;DHT22;17103;48.316;11.558;2022-12-07T09:33:13;7.80;52.00
30288;DHT22;17103;48.316;11.558;2022-12-07T09:35:47;6.70;51.00
30288;DHT22;17103;48.316;11.558;2022-12-07T09:38:14;6.70;50.80
30288;DHT22;17103;48.316;11.558;2022-12-07T09:40:43;6.80;50.90
30288;DHT22;17103;48.316;11.558;2022-12-07T09:43:22;6.70;50.80
30288;DHT22;17103;48.316;11.558;2022-12-07T09:45:52;6.80;50.90
30288;DHT22;17103;48.316;11.558;2022-12-07T09:48:32;7.70;51.40
30288;DHT22;17103;48.316;11.558;2022-12-07T09:51:00;6.70;50.70
30288;DHT22;17103;48.316;11.558;2022-12-07T09:53:37;6.90;50.50
30288;DHT22;17103;48.316;11.558;2022-12-07T09:56:04;6.90;50.50
30288;DHT22;17103;48.316;11.558;2022-12-07T09:58:31;7.50;50.90
30288;DHT22;17103;48.316;11.558;2022-12-07T10:03:38;6.90;50.30
30288;DHT22;17103;48.316;11.558;2022-12-07T10:06:05;6.90;50.30
30288;DHT22;17103;48.316;11.558;2022-12-07T10:08:32;6.90;50.40
30288;DHT22;17103;48.316;11.558;2022-12-07T10:11:00;6.90;50.50
30288;DHT22;17103;48.316;11.558;2022-12-07T10:13:47;6.90;50.60
30288;DHT22;17103;48.316;11.558;2022-12-07T10:16:54;6.90;50.70
30288;DHT22;17103;48.316;11.558;2022-12-07T10:19:35;6.90;50.80
30288;DHT22;17103;48.316;11.558;2022-12-07T10:22:15;6.90;50.80
30288;DHT22;17103;48.316;11.558;2022-12-07T10:24:46;6.90;50.80
30288;DHT22;17103;48.316;11.558;2022-12-07T10:27:26;6.90;50.20
30288;DHT22;17103;48.316;11.558;2022-12-07T10:29:55;6.90;50.10
30288;DHT22;17103;48.316;11.558;2022-12-07T10:32:36;6.90;50.10
30288;DHT22;17103;48.316;11.558;2022-12-07T10:35:24;6.90;50.10
30288;DHT22;17103;48.316;11.558;2022-12-07T10:37:51;6.90;50.00
30288;DHT22;17103;48.316;11.558;2022-12-07T10:43:01;7.20;50.00
30288;DHT22;17103;48.316;11.558;2022-12-07T10:45:28;7.30;49.90
30288;DHT22;17103;48.316;11.558;2022-12-07T11:06:39;7.90;47.60
30288;DHT22;17103;48.316;11.558;2022-12-07T11:11:50;8.10;47.50
30288;DHT22;17103;48.316;11.558;2022-12-07T11:14:36;8.20;47.40
30288;DHT22;17103;48.316;11.558;2022-12-07T11:17:07;8.30;45.80
30288;DHT22;17103;48.316;11.558;2022-12-07T11:28:16;8.50;45.30
30288;DHT22;17103;48.316;11.558;2022-12-07T11:34:13;8.50;45.20
30288;DHT22;17103;48.316;11.558;2022-12-07T11:36:40;8.50;44.80
30288;DHT22;17103;48.316;11.558;2022-12-07T11:39:40;8.50;45.50
30288;DHT22;17103;48.316;11.558;2022-12-07T11:42:31;8.50;45.90
30288;DHT22;17103;48.316;11.558;2022-12-07T11:47:54;8.50;45.20
30288;DHT22;17103;48.316;11.558;2022-12-07T11:50:37;8.50;45.50
30288;DHT22;17103;48.316;11.558;2022-12-07T11:55:50;8.40;45.60
30288;DHT22;17103;48.316;11.558;2022-12-07T12:06:38;8.60;45.00
30288;DHT22;17103;48.316;11.558;2022-12-07T12:09:29;8.70;45.20
30288;DHT22;17103;48.316;11.558;2022-12-07T12:23:09;8.50;45.20
30288;DHT22;17103;48.316;11.558;2022-12-07T12:25:41;8.50;45.30
30288;DHT22;17103;48.316;11.558;2022-12-07T12:29:02;8.50;45.00
30288;DHT22;17103;48.316;11.558;2022-12-07T12:33:44;8.60;45.10
30288;DHT22;17103;48.316;11.558;2022-12-07T12:39:11;8.60;45.20
30288;DHT22;17103;48.316;11.558;2022-12-07T12:47:01;8.50;45.20
30288;DHT22;17103;48.316;11.558;2022-12-07T12:49:43;8.50;45.40
30288;DHT22;17103;48.316;11.558;2022-12-07T12:57:35;8.40;44.90
30288;DHT22;17103;48.316;11.558;2022-12-07T13:00:22;8.40;44.80
30288;DHT22;17103;48.316;11.558;2022-12-07T13:02:56;8.40;44.50
30288;DHT22;17103;48.316;11.558;2022-12-07T13:05:29;8.40;44.30
30288;DHT22;17103;48.316;11.558;2022-12-07T13:08:14;8.40;44.30
30288;DHT22;17103;48.316;11.558;2022-12-07T13:10:44;8.30;44.40
30288;DHT22;17103;48.316;11.558;2022-12-07T13:15:41;8.30;44.60
30288;DHT22;17103;48.316;11.558;2022-12-07T13:26:16;8.30;44.80
30288;DHT22;17103;48.316;11.558;2022-12-07T13:29:06;8.30;44.50
30288;DHT22;17103;48.316;11.558;2022-12-07T13:31:42;8.30;44.40
30288;DHT22;17103;48.316;11.558;2022-12-07T13:36:53;8.30;44.40
30288;DHT22;17103;48.316;11.558;2022-12-07T13:39:23;8.20;44.50
30288;DHT22;17103;48.316;11.558;2022-12-07T13:41:55;8.30;44.70
30288;DHT22;17103;48.316;11.558;2022-12-07T13:44:23;8.30;44.40
30288;DHT22;17103;48.316;11.558;2022-12-07T13:47:16;8.20;44.30
30288;DHT22;17103;48.316;11.558;2022-12-07T13:49:52;8.20;44.20
30288;DHT22;17103;48.316;11.558;2022-12-07T13:52:26;8.20;44.30
30288;DHT22;17103;48.316;11.558;2022-12-07T13:55:21;8.20;44.40
30288;DHT22;17103;48.316;11.558;2022-12-07T13:57:51;9.20;45.40
30288;DHT22;17103;48.316;11.558;2022-12-07T14:00:23;8.20;44.30
30288;DHT22;17103;48.316;11.558;2022-12-07T14:05:34;8.20;44.10
30288;DHT22;17103;48.316;11.558;2022-12-07T14:08:20;8.30;44.40
30288;DHT22;17103;48.316;11.558;2022-12-07T14:13:38;8.30;44.50
30288;DHT22;17103;48.316;11.558;2022-12-07T14:16:30;8.30;44.40
30288;DHT22;17103;48.316;11.558;2022-12-07T14:18:59;8.30;44.90
30288;DHT22;17103;48.316;11.558;2022-12-07T14:21:30;8.40;44.90
30288;DHT22;17103;48.316;11.558;2022-12-07T14:24:18;8.40;44.30
30288;DHT22;17103;48.316;11.558;2022-12-07T14:26:48;8.50;44.40
30288;DHT22;17103;48.316;11.558;2022-12-07T14:31:51;8.60;45.00
30288;DHT22;17103;48.316;11.558;2022-12-07T14:34:23;8.60;44.90
30288;DHT22;17103;48.316;11.558;2022-12-07T14:36:49;8.70;44.90
30288;DHT22;17103;48.316;11.558;2022-12-07T14:39:16;8.70;44.70
30288;DHT22;17103;48.316;11.558;2022-12-07T14:41:42;8.80;44.70
30288;DHT22;17103;48.316;11.558;2022-12-07T14:44:18;9.50;45.20
30288;DHT22;17103;48.316;11.558;2022-12-07T14:46:44;8.90;44.50
30288;DHT22;17103;48.316;11.558;2022-12-07T14:49:10;9.70;44.90
30288;DHT22;17103;48.316;11.558;2022-12-07T14:51:39;8.90;44.00
30288;DHT22;17103;48.316;11.558;2022-12-07T14:54:06;8.90;43.70
30288;DHT22;17103;48.316;11.558;2022-12-07T14:56:35;8.90;43.50
30288;DHT22;17103;48.316;11.558;2022-12-07T14:59:00;8.80;43.30
30288;DHT22;17103;48.316;11.558;2022-12-07T15:01:26;8.80;43.10
30288;DHT22;17103;48.316;11.558;2022-12-07T15:03:54;8.80;43.40
30288;DHT22;17103;48.316;11.558;2022-12-07T15:06:27;8.80;43.40
30288;DHT22;17103;48.316;11.558;2022-12-07T15:08:52;8.70;43.90
30288;DHT22;17103;48.316;11.558;2022-12-07T15:11:18;8.80;43.60
30288;DHT22;17103;48.316;11.558;2022-12-07T15:13:44;8.60;43.50
30288;DHT22;17103;48.316;11.558;2022-12-07T15:16:28;8.50;43.20
30288;DHT22;17103;48.316;11.558;2022-12-07T15:18:54;8.50;43.60
30288;DHT22;17103;48.316;11.558;2022-12-07T15:21:20;9.60;44.50
30288;DHT22;17103;48.316;11.558;2022-12-07T15:23:46;8.50;43.80
30288;DHT22;17103;48.316;11.558;2022-12-07T15:26:13;8.50;43.90
30288;DHT22;17103;48.316;11.558;2022-12-07T15:28:39;8.40;43.90
30288;DHT22;17103;48.316;11.558;2022-12-07T15:31:14;8.40;43.90
30288;DHT22;17103;48.316;11.558;2022-12-07T15:33:40;8.40;44.00
30288;DHT22;17103;48.316;11.558;2022-12-07T15:36:09;8.30;44.00
30288;DHT22;17103;48.316;11.558;2022-12-07T15:38:39;8.30;44.10
30288;DHT22;17103;48.316;11.558;2022-12-07T15:41:04;8.30;44.10
30288;DHT22;17103;48.316;11.558;2022-12-07T15:43:30;8.30;44.10
30288;DHT22;17103;48.316;11.558;2022-12-07T15:46:14;8.20;44.10
30288;DHT22;17103;48.316;11.558;2022-12-07T15:48:40;8.20;44.10
30288;DHT22;17103;48.316;11.558;2022-12-07T15:51:08;8.20;44.20
30288;DHT22;17103;48.316;11.558;2022-12-07T15:53:35;8.10;44.20
30288;DHT22;17103;48.316;11.558;2022-12-07T15:56:05;8.10;44.10
30288;DHT22;17103;48.316;11.558;2022-12-07T15:58:34;8.10;44.30
30288;DHT22;17103;48.316;11.558;2022-12-07T16:01:00;8.10;44.30
30288;DHT22;17103;48.316;11.558;2022-12-07T16:03:27;8.00;44.40
30288;DHT22;17103;48.316;11.558;2022-12-07T16:05:53;8.00;44.40
30288;DHT22;17103;48.316;11.558;2022-12-07T16:08:19;8.00;44.40
30288;DHT22;17103;48.316;11.558;2022-12-07T16:10:45;8.00;44.40
30288;DHT22;17103;48.316;11.558;2022-12-07T16:13:11;8.00;44.40
30288;DHT22;17103;48.316;11.558;2022-12-07T16:15:41;8.00;44.30
30288;DHT22;17103;48.316;11.558;2022-12-07T16:18:06;8.10;44.40
30288;DHT22;17103;48.316;11.558;2022-12-07T16:20:32;8.00;44.20
30288;DHT22;17103;48.316;11.558;2022-12-07T16:22:58;8.00;44.20
30288;DHT22;17103;48.316;11.558;2022-12-07T16:25:24;8.00;44.30
30288;DHT22;17103;48.316;11.558;2022-12-07T16:27:51;7.90;44.20
30288;DHT22;17103;48.316;11.558;2022-12-07T16:30:17;7.90;44.10
30288;DHT22;17103;48.316;11.558;2022-12-07T16:32:43;7.90;44.20
30288;DHT22;17103;48.316;11.558;2022-12-07T16:35:09;8.60;44.70
30288;DHT22;17103;48.316;11.558;2022-12-07T16:37:35;7.90;44.30
30288;DHT22;17103;48.316;11.558;2022-12-07T16:40:01;7.80;44.20
30288;DHT22;17103;48.316;11.558;2022-12-07T16:42:32;7.90;44.30
30288;DHT22;17103;48.316;11.558;2022-12-07T16:44:57;7.80;44.20
30288;DHT22;17103;48.316;11.558;2022-12-07T16:47:23;7.80;44.30
30288;DHT22;17103;48.316;11.558;2022-12-07T16:49:49;7.80;44.30
30288;DHT22;17103;48.316;11.558;2022-12-07T16:52:14;7.80;44.40
30288;DHT22;17103;48.316;11.558;2022-12-07T16:54:40;7.80;44.40
30288;DHT22;17103;48.316;11.558;2022-12-07T16:57:05;7.80;44.40
30288;DHT22;17103;48.316;11.558;2022-12-07T16:59:31;7.80;44.60
30288;DHT22;17103;48.316;11.558;2022-12-07T17:01:57;7.70;44.50
30288;DHT22;17103;48.316;11.558;2022-12-07T17:04:22;7.70;44.40
30288;DHT22;17103;48.316;11.558;2022-12-07T17:06:48;7.70;44.40
30288;DHT22;17103;48.316;11.558;2022-12-07T17:09:13;7.70;44.50
30288;DHT22;17103;48.316;11.558;2022-12-07T17:11:43;7.70;44.60
30288;DHT22;17103;48.316;11.558;2022-12-07T17:14:09;7.70;44.60
30288;DHT22;17103;48.316;11.558;2022-12-07T17:16:54;7.70;44.60
30288;DHT22;17103;48.316;11.558;2022-12-07T17:19:19;7.70;44.50
30288;DHT22;17103;48.316;11.558;2022-12-07T17:21:45;7.70;44.50
30288;DHT22;17103;48.316;11.558;2022-12-07T17:24:15;7.70;44.50
30288;DHT22;17103;48.316;11.558;2022-12-07T17:26:42;7.70;44.90
30288;DHT22;17103;48.316;11.558;2022-12-07T17:29:12;7.70;44.40
30288;DHT22;17103;48.316;11.558;2022-12-07T17:31:38;7.70;44.40
30288;DHT22;17103;48.316;11.558;2022-12-07T17:34:03;7.70;44.50
30288;DHT22;17103;48.316;11.558;2022-12-07T17:36:30;7.80;44.70
30288;DHT22;17103;48.316;11.558;2022-12-07T17:38:57;7.80;44.70
30288;DHT22;17103;48.316;11.558;2022-12-07T17:41:27;7.80;44.70
30288;DHT22;17103;48.316;11.558;2022-12-07T17:44:14;7.80;44.70
30288;DHT22;17103;48.316;11.558;2022-12-07T17:46:40;8.50;45.30
30288;DHT22;17103;48.316;11.558;2022-12-07T17:49:06;7.80;44.80
30288;DHT22;17103;48.316;11.558;2022-12-07T17:51:32;7.90;44.90
30288;DHT22;17103;48.316;11.558;2022-12-07T17:54:17;7.90;44.90
30288;DHT22;17103;48.316;11.558;2022-12-07T17:56:43;7.90;44.90
30288;DHT22;17103;48.316;11.558;2022-12-07T17:59:09;8.30;45.20
30288;DHT22;17103;48.316;11.558;2022-12-07T18:01:35;8.00;45.00